createdAt,value
2022-09-28T00:01:49.547Z,5.80
2022-09-28T00:04:20.558Z,5.90
2022-09-28T00:06:51.304Z,6.10
2022-09-28T00:09:21.131Z,6.00
2022-09-28T00:11:53.947Z,6.20
2022-09-28T00:14:24.592Z,5.90
2022-09-28T00:16:54.599Z,6.10
2022-09-28T00:19:24.391Z,6.00
2022-09-28T00:21:54.554Z,6.20
2022-09-28T00:24:27.640Z,5.90
2022-09-28T00:27:02.942Z,5.90
2022-09-28T00:29:34.694Z,5.80
2022-09-28T00:32:07.954Z,6.20
2022-09-28T00:34:42.489Z,5.80
2022-09-28T00:37:12.955Z,5.70
2022-09-28T00:39:44.440Z,5.90
2022-09-28T00:42:19.870Z,5.90
2022-09-28T00:44:51.359Z,5.90
2022-09-28T00:47:29.902Z,5.90
2022-09-28T00:50:04.274Z,5.70
2022-09-28T00:52:41.706Z,5.60
2022-09-28T00:55:15.228Z,5.70
2022-09-28T00:57:53.265Z,5.80
2022-09-28T01:00:23.148Z,5.60
2022-09-28T01:02:54.534Z,5.70
2022-09-28T01:05:25.610Z,5.70
2022-09-28T01:07:58.307Z,5.90
2022-09-28T01:10:31.089Z,5.60
2022-09-28T01:13:03.763Z,5.90
2022-09-28T01:15:41.451Z,5.60
2022-09-28T01:18:19.611Z,5.70
2022-09-28T01:20:58.556Z,5.70
2022-09-28T01:23:43.783Z,5.70
2022-09-28T01:26:44.355Z,5.60
2022-09-28T01:29:21.766Z,5.90
2022-09-28T01:31:55.716Z,5.60
2022-09-28T01:34:31.220Z,5.70
2022-09-28T01:37:07.600Z,5.80
2022-09-28T01:39:42.420Z,5.80
2022-09-28T01:42:20.221Z,5.80
2022-09-28T01:44:52.898Z,6.20
2022-09-28T01:47:26.304Z,5.90
2022-09-28T01:50:07.267Z,5.80
2022-09-28T01:52:41.279Z,6.00
2022-09-28T01:55:15.916Z,5.80
2022-09-28T01:57:55.866Z,5.80
2022-09-28T02:00:27.818Z,6.20
2022-09-28T02:03:04.925Z,5.90
2022-09-28T02:05:44.980Z,6.00
2022-09-28T02:08:23.000Z,6.10
2022-09-28T02:10:57.472Z,5.90
2022-09-28T02:13:34.201Z,6.00
2022-09-28T02:16:08.408Z,6.20
2022-09-28T02:18:39.513Z,6.00
2022-09-28T02:21:14.868Z,6.10
2022-09-28T02:23:53.134Z,6.10
2022-09-28T02:26:27.592Z,6.30
2022-09-28T02:29:01.182Z,5.90
2022-09-28T02:31:31.495Z,6.10
2022-09-28T02:34:02.243Z,6.00
2022-09-28T02:36:33.163Z,6.10
2022-09-28T02:39:07.033Z,6.00
2022-09-28T02:41:51.236Z,5.90
2022-09-28T02:44:58.004Z,6.00
2022-09-28T02:47:38.242Z,5.90
2022-09-28T02:50:18.547Z,6.00
2022-09-28T02:53:09.654Z,5.90
2022-09-28T02:55:54.390Z,6.00
2022-09-28T02:58:35.565Z,6.10
2022-09-28T03:01:18.715Z,5.90
2022-09-28T03:03:53.403Z,6.00
2022-09-28T03:06:29.515Z,5.80
2022-09-28T03:09:07.710Z,6.20
2022-09-28T03:11:44.367Z,6.20
2022-09-28T03:14:15.833Z,5.90
2022-09-28T03:16:55.339Z,5.80
2022-09-28T03:19:30.102Z,6.00
2022-09-28T03:22:00.282Z,6.10
2022-09-28T03:24:30.457Z,6.00
2022-09-28T03:27:00.632Z,6.00
2022-09-28T03:29:33.033Z,6.10
2022-09-28T03:32:09.861Z,6.10
2022-09-28T03:34:39.699Z,6.00
2022-09-28T03:37:09.850Z,6.10
2022-09-28T03:39:39.729Z,6.00
2022-09-28T03:42:09.816Z,6.20
2022-09-28T03:44:43.146Z,6.10
2022-09-28T03:47:18.074Z,6.10
2022-09-28T03:49:48.070Z,5.90
2022-09-28T03:52:19.318Z,6.00
2022-09-28T03:54:49.555Z,6.20
2022-09-28T03:57:19.697Z,5.90
2022-09-28T03:59:49.574Z,6.20
2022-09-28T04:02:22.739Z,6.10
2022-09-28T04:04:52.556Z,6.10
2022-09-28T04:07:24.567Z,6.10
2022-09-28T04:09:55.795Z,6.10
2022-09-28T04:12:25.777Z,6.10
2022-09-28T04:14:55.531Z,6.10
2022-09-28T04:17:29.433Z,6.00
2022-09-28T04:19:59.207Z,6.00
2022-09-28T04:22:41.368Z,6.00
2022-09-28T04:25:12.126Z,6.00
2022-09-28T04:27:54.985Z,6.00
2022-09-28T04:30:24.927Z,6.00
2022-09-28T04:32:58.873Z,6.10
2022-09-28T04:35:31.928Z,6.00
2022-09-28T04:38:02.338Z,6.00
2022-09-28T04:40:32.842Z,5.90
2022-09-28T04:43:03.793Z,6.20
2022-09-28T04:45:33.699Z,6.00
2022-09-28T04:48:12.361Z,6.20
2022-09-28T04:51:03.611Z,6.10
2022-09-28T04:53:34.519Z,5.90
2022-09-28T04:56:06.600Z,5.80
2022-09-28T04:58:38.777Z,6.00
2022-09-28T05:01:10.498Z,5.80
2022-09-28T05:04:02.804Z,5.70
2022-09-28T05:06:38.666Z,6.20
2022-09-28T05:09:10.746Z,6.20
2022-09-28T05:11:40.594Z,5.80
2022-09-28T05:14:15.543Z,5.70
2022-09-28T05:16:45.352Z,6.20
2022-09-28T05:19:41.624Z,6.10
2022-09-28T05:22:14.866Z,6.20
2022-09-28T05:24:48.893Z,5.80
2022-09-28T05:27:18.749Z,5.80
2022-09-28T05:29:55.818Z,5.90
2022-09-28T05:32:44.915Z,5.90
2022-09-28T05:35:24.838Z,6.20
2022-09-28T05:37:55.045Z,6.00
2022-09-28T05:40:25.296Z,5.90
2022-09-28T05:42:56.121Z,6.00
2022-09-28T05:45:25.920Z,6.20
2022-09-28T05:47:55.931Z,6.00
2022-09-28T05:50:28.777Z,6.20
2022-09-28T05:53:03.516Z,6.00
2022-09-28T05:55:34.474Z,5.90
2022-09-28T05:58:08.803Z,5.80
2022-09-28T06:00:39.454Z,6.20
2022-09-28T06:03:13.010Z,5.70
2022-09-28T06:05:45.400Z,5.70
2022-09-28T06:08:15.560Z,5.70
2022-09-28T06:10:49.488Z,5.80
2022-09-28T06:13:20.069Z,5.70
2022-09-28T06:15:49.944Z,5.70
2022-09-28T06:18:20.240Z,5.70
2022-09-28T06:21:10.951Z,5.80
2022-09-28T06:23:48.957Z,5.70
2022-09-28T06:26:19.912Z,5.80
2022-09-28T06:28:49.845Z,5.90
2022-09-28T06:31:23.683Z,5.80
2022-09-28T06:33:54.009Z,5.70
2022-09-28T06:36:26.609Z,5.70
2022-09-28T06:38:56.378Z,5.70
2022-09-28T06:41:26.609Z,5.70
2022-09-28T06:43:56.542Z,5.60
2022-09-28T06:46:44.865Z,5.60
2022-09-28T06:49:37.583Z,5.60
2022-09-28T06:52:15.445Z,5.80
2022-09-28T06:55:14.646Z,5.80
2022-09-28T06:57:50.865Z,5.80
2022-09-28T07:00:20.999Z,5.60
2022-09-28T07:02:50.925Z,5.70
2022-09-28T07:05:41.516Z,5.70
2022-09-28T07:08:42.922Z,5.60
2022-09-28T07:11:30.380Z,5.70
2022-09-28T07:14:28.796Z,5.70
2022-09-28T07:17:13.274Z,5.80
2022-09-28T07:19:45.042Z,5.60
2022-09-28T07:22:19.003Z,5.80
2022-09-28T07:24:52.975Z,5.70
2022-09-28T07:27:41.577Z,5.80
2022-09-28T07:30:33.204Z,5.60
2022-09-28T07:33:12.774Z,5.70
2022-09-28T07:35:56.485Z,5.70
2022-09-28T07:38:30.445Z,6.10
2022-09-28T07:41:17.058Z,5.80
2022-09-28T07:43:51.130Z,6.10
2022-09-28T07:46:22.947Z,6.00
2022-09-28T07:49:11.382Z,6.10
2022-09-28T07:52:00.995Z,6.10
2022-09-28T07:54:31.292Z,5.80
2022-09-28T07:57:36.285Z,5.80
2022-09-28T08:00:21.291Z,5.90
2022-09-28T08:02:51.350Z,5.80
2022-09-28T08:05:25.983Z,5.70
2022-09-28T08:07:58.510Z,5.60
2022-09-28T08:10:30.373Z,5.70
2022-09-28T08:13:11.768Z,5.60
2022-09-28T08:16:04.292Z,6.10
2022-09-28T08:18:39.452Z,5.80
2022-09-28T08:21:22.253Z,5.70
2022-09-28T08:23:52.995Z,5.70
2022-09-28T08:26:22.815Z,5.80
2022-09-28T08:28:55.666Z,5.80
2022-09-28T08:31:51.035Z,6.00
2022-09-28T08:34:44.842Z,6.10
2022-09-28T08:37:51.386Z,6.00
2022-09-28T08:41:10.287Z,6.00
2022-09-28T08:44:14.972Z,5.90
2022-09-28T08:47:38.894Z,5.90
2022-09-28T08:50:38.490Z,5.70
2022-09-28T08:53:34.378Z,5.70
2022-09-28T08:56:29.729Z,5.80
2022-09-28T08:59:07.640Z,5.70
2022-09-28T09:01:43.313Z,6.20
2022-09-28T09:04:17.995Z,5.70
2022-09-28T09:07:34.369Z,5.80
2022-09-28T09:10:19.804Z,6.00
2022-09-28T09:13:01.104Z,5.90
2022-09-28T09:15:42.375Z,5.90
2022-09-28T09:18:33.916Z,6.10
2022-09-28T09:21:16.756Z,6.40
2022-09-28T09:23:57.318Z,6.30
2022-09-28T09:26:39.563Z,6.30
2022-09-28T09:29:30.379Z,6.30
2022-09-28T09:32:19.727Z,6.20
2022-09-28T09:35:16.185Z,6.10
2022-09-28T09:38:20.600Z,5.90
2022-09-28T09:41:22.705Z,6.00
2022-09-28T09:44:45.008Z,5.70
2022-09-28T09:47:44.506Z,5.80
2022-09-28T09:50:30.283Z,5.90
2022-09-28T09:53:06.916Z,6.10
2022-09-28T09:55:41.923Z,5.90
2022-09-28T09:58:34.251Z,5.90
2022-09-28T10:01:22.343Z,6.20
2022-09-28T10:04:20.979Z,5.90
2022-09-28T10:06:54.294Z,6.00
2022-09-28T10:09:29.276Z,5.90
2022-09-28T10:12:15.275Z,6.00
2022-09-28T10:14:46.597Z,6.10
2022-09-28T10:17:26.797Z,6.00
2022-09-28T10:20:19.180Z,6.00
2022-09-28T10:23:20.287Z,6.00
2022-09-28T10:25:54.289Z,6.10
2022-09-28T10:28:32.814Z,6.10
2022-09-28T10:31:03.864Z,6.20
2022-09-28T10:33:35.562Z,6.30
2022-09-28T10:36:10.417Z,6.50
2022-09-28T10:38:40.547Z,6.70
2022-09-28T10:41:17.622Z,6.40
2022-09-28T10:44:06.506Z,6.70
2022-09-28T10:46:42.076Z,6.50
2022-09-28T10:49:20.614Z,6.60
2022-09-28T10:52:00.916Z,6.60
2022-09-28T10:54:37.317Z,6.90
2022-09-28T10:57:30.759Z,6.90
2022-09-28T11:00:08.782Z,6.60
2022-09-28T11:02:50.020Z,6.50
2022-09-28T11:05:27.872Z,6.60
2022-09-28T11:08:08.308Z,6.60
2022-09-28T11:10:48.168Z,6.50
2022-09-28T11:13:19.267Z,6.40
2022-09-28T11:16:01.083Z,6.50
2022-09-28T11:18:36.739Z,6.50
2022-09-28T11:21:13.403Z,6.40
2022-09-28T11:24:06.181Z,6.70
2022-09-28T11:26:40.967Z,6.70
2022-09-28T11:29:27.482Z,6.90
2022-09-28T11:32:21.879Z,7.00
2022-09-28T11:35:23.396Z,7.10
2022-09-28T11:38:11.286Z,7.20
2022-09-28T11:41:44.678Z,7.20
2022-09-28T11:44:33.212Z,7.10
2022-09-28T11:47:32.072Z,7.30
2022-09-28T11:50:07.982Z,7.40
2022-09-28T11:52:44.523Z,7.60
2022-09-28T11:55:21.732Z,7.50
2022-09-28T11:58:02.886Z,7.40
2022-09-28T12:00:36.918Z,7.50
2022-09-28T12:03:12.365Z,7.50
2022-09-28T12:05:47.725Z,7.60
2022-09-28T12:08:22.246Z,7.80
2022-09-28T12:11:23.291Z,7.70
2022-09-28T12:14:22.078Z,7.60
2022-09-28T12:17:06.848Z,7.70
2022-09-28T12:19:43.923Z,7.90
2022-09-28T12:22:19.037Z,7.70
2022-09-28T12:24:52.129Z,7.60
2022-09-28T12:27:27.670Z,7.60
2022-09-28T12:30:06.913Z,7.80
2022-09-28T12:32:40.875Z,7.40
2022-09-28T12:35:16.258Z,7.30
2022-09-28T12:38:15.679Z,7.30
2022-09-28T12:40:54.576Z,8.10
2022-09-28T12:43:44.275Z,8.00
2022-09-28T12:46:35.964Z,8.10
2022-09-28T12:50:33.367Z,8.50
2022-09-28T12:52:30.805Z,8.30
2022-09-28T12:55:34.405Z,8.20
2022-09-28T12:58:15.266Z,8.30
2022-09-28T13:00:55.686Z,8.00
2022-09-28T13:03:59.645Z,8.20
2022-09-28T13:06:39.994Z,8.00
2022-09-28T13:09:24.678Z,8.00
2022-09-28T13:12:26.835Z,8.20
2022-09-28T13:15:19.207Z,8.50
2022-09-28T13:17:55.062Z,8.70
2022-09-28T13:20:37.610Z,8.60
2022-09-28T13:23:17.826Z,8.50
2022-09-28T13:25:53.961Z,8.10
2022-09-28T13:28:27.261Z,7.60
2022-09-28T13:31:00.295Z,7.60
2022-09-28T13:33:36.976Z,7.10
2022-09-28T13:36:47.900Z,7.40
2022-09-28T13:39:37.632Z,7.10
2022-09-28T13:42:10.706Z,7.50
2022-09-28T13:45:14.959Z,7.60
2022-09-28T13:47:58.842Z,7.50
2022-09-28T13:50:39.482Z,7.80
2022-09-28T13:53:24.512Z,7.70
2022-09-28T13:56:03.088Z,7.90
2022-09-28T13:58:38.785Z,7.80
2022-09-28T14:01:14.458Z,8.10
2022-09-28T14:03:58.518Z,8.10
2022-09-28T14:06:30.080Z,8.30
2022-09-28T14:09:42.360Z,8.30
2022-09-28T14:12:47.057Z,7.70
2022-09-28T14:15:43.081Z,7.60
2022-09-28T14:18:28.994Z,7.70
2022-09-28T14:21:17.081Z,7.60
2022-09-28T14:24:04.125Z,7.80
2022-09-28T14:26:59.940Z,7.60
2022-09-28T14:29:32.179Z,7.80
2022-09-28T14:32:07.796Z,7.60
2022-09-28T14:34:40.280Z,7.70
2022-09-28T14:37:35.645Z,7.80
2022-09-28T14:40:31.621Z,7.60
2022-09-28T14:43:27.820Z,7.80
2022-09-28T14:46:27.781Z,7.60
2022-09-28T14:49:01.750Z,7.20
2022-09-28T14:51:48.128Z,7.10
2022-09-28T14:54:22.624Z,7.50
2022-09-28T14:57:08.266Z,7.50
2022-09-28T14:59:48.605Z,7.50
2022-09-28T15:02:26.738Z,7.60
2022-09-28T15:05:00.463Z,7.60
2022-09-28T15:07:34.350Z,7.80
2022-09-28T15:10:07.572Z,7.90
2022-09-28T15:12:37.841Z,7.90
2022-09-28T15:15:28.424Z,7.70
2022-09-28T15:18:08.220Z,7.70
2022-09-28T15:20:42.710Z,7.80
2022-09-28T15:23:28.705Z,7.70
2022-09-28T15:25:59.219Z,7.60
2022-09-28T15:28:29.027Z,7.90
2022-09-28T15:31:06.815Z,7.60
2022-09-28T15:33:50.128Z,7.50
2022-09-28T15:36:23.561Z,7.60
2022-09-28T15:39:00.642Z,7.70
2022-09-28T15:41:31.613Z,7.60
2022-09-28T15:44:33.017Z,7.60
2022-09-28T15:47:13.731Z,7.80
2022-09-28T15:49:47.812Z,7.60
2022-09-28T15:52:29.963Z,7.70
2022-09-28T15:55:02.183Z,7.50
2022-09-28T15:57:36.904Z,7.60
2022-09-28T16:00:11.105Z,7.80
2022-09-28T16:03:01.837Z,7.60
2022-09-28T16:05:41.309Z,7.50
2022-09-28T16:08:21.464Z,7.20
2022-09-28T16:11:00.020Z,7.40
2022-09-28T16:13:29.986Z,7.30
2022-09-28T16:16:01.653Z,7.30
2022-09-28T16:18:35.745Z,7.30
2022-09-28T16:21:27.815Z,7.20
2022-09-28T16:23:58.498Z,7.20
2022-09-28T16:26:34.306Z,7.30
2022-09-28T16:29:10.108Z,6.90
2022-09-28T16:31:43.893Z,6.90
2022-09-28T16:34:26.536Z,6.80
2022-09-28T16:36:56.294Z,6.80
2022-09-28T16:39:25.974Z,7.00
2022-09-28T16:42:03.459Z,6.80
2022-09-28T16:44:35.845Z,6.80
2022-09-28T16:47:05.947Z,6.80
2022-09-28T16:49:41.738Z,6.90
2022-09-28T16:52:34.860Z,6.90
2022-09-28T16:58:07.898Z,6.80
2022-09-28T17:00:38.918Z,6.70
2022-09-28T17:03:16.365Z,6.90
2022-09-28T17:05:50.275Z,6.90
2022-09-28T17:08:22.284Z,6.80
2022-09-28T17:11:13.966Z,6.80
2022-09-28T17:13:47.222Z,6.70
2022-09-28T17:16:21.007Z,6.70
2022-09-28T17:18:55.022Z,6.70
2022-09-28T17:21:27.571Z,6.60
2022-09-28T17:23:57.288Z,6.70
2022-09-28T17:26:31.998Z,6.70
2022-09-28T17:29:02.062Z,6.50
2022-09-28T17:31:32.657Z,6.70
2022-09-28T17:34:02.789Z,6.70
2022-09-28T17:36:35.186Z,6.70
2022-09-28T17:39:05.028Z,6.60
2022-09-28T17:41:35.151Z,6.90
2022-09-28T17:44:06.500Z,6.70
2022-09-28T17:46:39.861Z,6.60
2022-09-28T17:49:13.113Z,6.60
2022-09-28T17:51:45.959Z,6.70
2022-09-28T17:54:19.992Z,6.40
2022-09-28T17:56:50.469Z,6.60
2022-09-28T17:59:21.985Z,6.40
2022-09-28T18:01:52.124Z,6.60
2022-09-28T18:04:50.152Z,6.90
2022-09-28T18:07:14.460Z,6.60
2022-09-28T18:09:44.421Z,6.60
2022-09-28T18:12:14.811Z,6.90
2022-09-28T18:14:44.763Z,6.60
2022-09-28T18:17:14.902Z,6.50
2022-09-28T18:19:44.902Z,6.50
2022-09-28T18:22:17.837Z,6.50
2022-09-28T18:24:47.819Z,6.50
2022-09-28T18:27:18.000Z,6.40
2022-09-28T18:29:47.943Z,6.50
2022-09-28T18:32:18.844Z,6.60
2022-09-28T18:34:48.682Z,6.40
2022-09-28T18:37:22.137Z,6.40
2022-09-28T18:39:52.453Z,6.50
2022-09-28T18:42:23.067Z,6.40
2022-09-28T18:44:53.090Z,6.30
2022-09-28T18:47:23.694Z,6.40
2022-09-28T18:49:53.700Z,6.40
2022-09-28T18:52:26.375Z,6.40
2022-09-28T18:54:56.280Z,6.60
2022-09-28T18:57:26.486Z,6.50
2022-09-28T18:59:56.435Z,6.50
2022-09-28T19:02:26.934Z,6.40
2022-09-28T19:04:56.902Z,6.50
2022-09-28T19:07:29.812Z,6.40
2022-09-28T19:09:59.892Z,6.40
2022-09-28T19:12:29.963Z,6.40
2022-09-28T19:14:59.852Z,6.30
2022-09-28T19:17:30.330Z,6.40
2022-09-28T19:20:00.207Z,6.30
2022-09-28T19:22:33.182Z,6.60
2022-09-28T19:25:03.216Z,6.30
2022-09-28T19:27:33.280Z,6.30
2022-09-28T19:30:03.477Z,6.40
2022-09-28T19:32:33.725Z,6.40
2022-09-28T19:35:04.174Z,6.60
2022-09-28T19:37:39.096Z,6.30
2022-09-28T19:40:10.173Z,6.60
2022-09-28T19:42:40.326Z,6.50
2022-09-28T19:45:10.969Z,6.40
2022-09-28T19:47:40.910Z,6.30
2022-09-28T19:50:11.458Z,6.30
2022-09-28T19:52:44.318Z,6.10
2022-09-28T19:55:14.176Z,6.20
2022-09-28T19:57:48.048Z,6.20
2022-09-28T20:00:18.155Z,6.10
2022-09-28T20:02:48.338Z,6.00
2022-09-28T20:05:28.130Z,6.10
2022-09-28T20:08:01.102Z,6.10
2022-09-28T20:10:31.018Z,6.10
2022-09-28T20:13:01.346Z,6.20
2022-09-28T20:15:31.417Z,6.40
2022-09-28T20:18:01.981Z,6.20
2022-09-28T20:20:31.863Z,6.00
2022-09-28T20:23:04.790Z,6.50
2022-09-28T20:25:34.894Z,6.10
2022-09-28T20:28:05.383Z,6.30
2022-09-28T20:30:35.777Z,6.50
2022-09-28T20:33:07.162Z,6.50
2022-09-28T20:35:37.302Z,6.80
2022-09-28T20:38:10.886Z,6.70
2022-09-28T20:40:42.039Z,6.40
2022-09-28T20:43:12.745Z,6.40
2022-09-28T20:45:43.080Z,6.30
2022-09-28T20:48:13.252Z,6.60
2022-09-28T20:50:43.486Z,6.30
2022-09-28T20:53:16.176Z,6.30
2022-09-28T20:55:46.086Z,6.20
2022-09-28T20:58:16.492Z,6.10
2022-09-28T21:00:46.930Z,6.10
2022-09-28T21:03:18.408Z,6.10
2022-09-28T21:05:48.290Z,6.10
2022-09-28T21:08:21.936Z,6.10
2022-09-28T21:10:55.546Z,6.00
2022-09-28T21:13:26.781Z,6.00
2022-09-28T21:15:57.498Z,5.90
2022-09-28T21:18:27.461Z,5.80
2022-09-28T21:20:57.780Z,5.60
2022-09-28T21:23:30.265Z,5.50
2022-09-28T21:26:10.016Z,5.50
2022-09-28T21:28:41.169Z,5.10
2022-09-28T21:31:13.144Z,5.00
2022-09-28T21:33:43.104Z,5.10
2022-09-28T21:36:13.971Z,4.80
2022-09-28T21:38:46.534Z,4.80
2022-09-28T21:41:17.145Z,4.60
2022-09-28T21:43:48.334Z,4.40
2022-09-28T21:46:18.871Z,4.40
2022-09-28T21:48:49.000Z,4.60
2022-09-28T21:51:19.522Z,4.50
2022-09-28T21:53:52.123Z,4.20
2022-09-28T21:56:23.449Z,3.90
2022-09-28T21:58:53.797Z,4.10
2022-09-28T22:01:26.699Z,4.00
2022-09-28T22:03:58.292Z,3.90
2022-09-28T22:06:31.029Z,4.00
2022-09-28T22:09:03.529Z,4.00
2022-09-28T22:11:34.184Z,3.80
2022-09-28T22:14:04.090Z,3.80
2022-09-28T22:16:34.880Z,3.70
2022-09-28T22:19:04.873Z,3.60
2022-09-28T22:21:36.122Z,3.70
2022-09-28T22:24:10.105Z,3.70
2022-09-28T22:26:41.002Z,4.00
2022-09-28T22:29:12.244Z,3.70
2022-09-28T22:31:43.835Z,3.90
2022-09-28T22:34:13.862Z,3.40
2022-09-28T22:36:44.146Z,3.30
2022-09-28T22:39:16.660Z,3.20
2022-09-28T22:41:47.373Z,3.20
2022-09-28T22:44:17.487Z,3.30
2022-09-28T22:46:48.702Z,3.20
2022-09-28T22:49:18.745Z,3.30
2022-09-28T22:51:49.541Z,3.40
2022-09-28T22:54:22.213Z,3.10
2022-09-28T22:56:52.953Z,3.10
2022-09-28T22:59:22.859Z,3.20
2022-09-28T23:01:53.168Z,3.10
2022-09-28T23:04:23.199Z,3.10
2022-09-28T23:06:53.853Z,3.00
2022-09-28T23:09:26.443Z,2.80
2022-09-28T23:11:57.047Z,3.20
2022-09-28T23:14:26.948Z,2.90
2022-09-28T23:16:57.575Z,2.80
2022-09-28T23:19:27.474Z,2.80
2022-09-28T23:21:58.698Z,2.80
2022-09-28T23:24:31.223Z,2.50
2022-09-28T23:27:01.923Z,2.50
2022-09-28T23:29:31.830Z,2.50
2022-09-28T23:32:02.348Z,2.80
2022-09-28T23:34:32.511Z,2.60
2022-09-28T23:37:03.072Z,2.60
2022-09-28T23:39:35.655Z,2.50
2022-09-28T23:42:06.666Z,2.50
2022-09-28T23:44:36.862Z,2.30
2022-09-28T23:47:07.195Z,2.30
2022-09-28T23:49:37.117Z,2.20
2022-09-28T23:52:07.878Z,2.20
2022-09-28T23:54:40.448Z,2.20
2022-09-28T23:57:10.872Z,2.10
2022-09-28T23:59:40.784Z,2.40
